Columbus, OH (43210)

5:19 AM EST on November 28, 2014 (GMT -0500)
University View | Change Station
CLOSE
Current Station
Personal Weather Station
Location: Columbus, OH
Elevation: 755 ft
Nearby Weather Stations

Elev 755 ft 40.00 °N, 83.03 °W | Updated 3 seconds ago

Partly Cloudy
Partly Cloudy
23.4 °F
Feels Like 23 °F
N
0.7
Wind Variable Wind from NW
Gusts 2.2 mph

Today
High -- | Low -- °F
--% Chance of Precip.
Yesterday
High -- | Low -- °F
Precip. -- in
7:31 AM 5:08 PM
Waxing Crescent, 39% visible
Pressure 30.39 in
Visibility 10.0 miles
Clouds Few 3300 ft
Windchill 23 °F
Dew Point 16 °F
Humidity 74%
Rainfall 0.00 in
Snow Depth Not available.
UV 0 out of 12
Pollen .10 out of 12
Air Quality Not available.
Flu Activity Not available.
METAR KOSU 280953Z AUTO 29005KT 10SM FEW033 M06/M08 A3035 RMK AO2 SLP290 T10561083

More Conditions Fewer Conditions

Pressure 30.39 in
Visibility 10.0 miles
Clouds Few 3300 ft
Windchill 23 °F
Dew Point 16 °F
Humidity 74%
Rainfall 0.00 in
Snow Depth Not available.
UV 0 out of 12
Pollen .10 out of 12
Air Quality Not available.
Flu Activity Not available.
METAR KOSU 280953Z AUTO 29005KT 10SM FEW033 M06/M08 A3035 RMK AO2 SLP290 T10561083

More Conditions Fewer Conditions

10-Day Weather Forecast

Almanac

Astronomy

Nov. 28, 2014 Rise Set
Actual Time
Civil Twilight
Nautical Twilight
Astronomical Twilight
Moon
Length of Visible Light
Length of Day
Tomorrow will be .
, % of the Moon is Illuminated

Today's Extremes

State Highs State Lows

Community

WunderPhotos

Upload Photos

1,774,192 photos uploaded!

WunderBlogs® & News

Nearby

Air Quality

  Air Quality AQ Index Pollutant
Not available.

Snow Depth

Station Depth Elevation

Earthquake Activity

City Distance Mag. Time & Date
Minimum magnitude displayed is 2.5.

Coastal Water Temperatures

Place Temperature

Nearby Weather Stations